Airfield :
LOGIN :

Register | Disclaimer

   EN    FR    IT 

 










Legend :    VFR   Marginal VFR   IFR   Intensive IFR   Very Intensive IFR
Visi :
Ceiling :
>= 8 km
>= 3000ft
5 to 8 km
1000 to 3000 ft
1500m to 5 km
500 to 1000 ft
800 to 1500m
200 to 500 ft
< 800m
< 200 ft
Symbols :   Thunderstorms  Fog  Heavy snow  Heavy precipitations  Wind > 20 kt
SIGMETs :     Misc.  Thunderstorms  Icing  Turbulence  Mountain Waves  Volcanic Ashes






- Airport Elevation : 82 ft
- IATA code : QIE


LFMI - Istres

CURRENT METAR :
  • 040230Z AUTO 32011KT CAVOK 20/09 Q1017 NOSIG

EXPIRED METARs :
  • 040200Z AUTO 32012KT CAVOK 20/08 Q1017
  • 040130Z AUTO 30011KT CAVOK 20/08 Q1017
  • 040100Z AUTO 32014KT CAVOK 20/08 Q1016
  • 040030Z AUTO 32015KT CAVOK 21/08 Q1017
  • 040000Z AUTO 33018KT CAVOK 21/08 Q1016

TAF TAF LFMI
Valid from the 04 at 03:00 until the 05 at 03:00 UTC


040200Z 0403/0503 33015KT CAVOK
TEMPO 0407/0418 34015G25KT



MET'MAP, your aeronautical weather chart ! - Copyright ORBIFLY December 2007 - Disclaimer

ORBIFLY MET'MAP TEAM :

Programming & Development : Alexandra Zaïnal
Concept & original design : Baudouin d'Aumeries
Assistance for programming : Marc-Olivier Méhu
Technical & hardware support : Manuel Goepfert

Contact : metmap@orbifly.com




SOURCES & CREDITS :

   NOAA